Huntington Lake, California
Current Conditions -  °F | °C
As of 3:15 AM on Monday 22 Dec 2014 (Local Time) from KMMH Reporting Station
Clear Clear  
Wind Chill: 34°   Ceiling: Unl
Heat Index: 34°   Visibility: 10mi
Dew Point: 18°   Wind: 0mph
Humidity: 52%   Direction: NA
Pressure: 30.36"   Gusts: NA
Location:  37.23°N, 119.23°W
Report Text: KMMH 221115Z AUTO 00000KT 10SM CLR 01/M08 A3036 RMK AO1
Loading
Personal Weather Stations






























Interactive Weather Map New forecast layout! Learn more

10-Day Weather Forecast

Advertisements
Track Severe Weather on mobile